sensor_id;sensor_type;location;lat;lon;timestamp;P1;durP1;ratioP1;P2;durP2;ratioP2
19251;SDS011;9760;50.944;5.304;2023-04-27T00:01:49;13.90;;;6.90;;
19251;SDS011;9760;50.944;5.304;2023-04-27T00:04:15;12.40;;;6.60;;
19251;SDS011;9760;50.944;5.304;2023-04-27T00:06:42;16.27;;;6.47;;
19251;SDS011;9760;50.944;5.304;2023-04-27T00:09:07;15.63;;;6.83;;
19251;SDS011;9760;50.944;5.304;2023-04-27T00:11:33;14.87;;;7.00;;
19251;SDS011;9760;50.944;5.304;2023-04-27T00:13:59;15.17;;;7.47;;
19251;SDS011;9760;50.944;5.304;2023-04-27T00:16:25;17.27;;;6.57;;
19251;SDS011;9760;50.944;5.304;2023-04-27T00:18:50;19.80;;;7.10;;
19251;SDS011;9760;50.944;5.304;2023-04-27T00:21:16;18.83;;;6.97;;
19251;SDS011;9760;50.944;5.304;2023-04-27T00:23:42;19.20;;;7.20;;
19251;SDS011;9760;50.944;5.304;2023-04-27T00:26:08;18.47;;;7.07;;
19251;SDS011;9760;50.944;5.304;2023-04-27T00:28:33;14.63;;;6.77;;
19251;SDS011;9760;50.944;5.304;2023-04-27T00:30:59;15.50;;;7.27;;
19251;SDS011;9760;50.944;5.304;2023-04-27T00:33:27;14.67;;;7.10;;
19251;SDS011;9760;50.944;5.304;2023-04-27T00:35:53;15.37;;;8.10;;
19251;SDS011;9760;50.944;5.304;2023-04-27T00:38:19;15.10;;;7.40;;
19251;SDS011;9760;50.944;5.304;2023-04-27T00:40:45;15.23;;;7.27;;
19251;SDS011;9760;50.944;5.304;2023-04-27T00:43:11;23.57;;;7.50;;
19251;SDS011;9760;50.944;5.304;2023-04-27T00:45:40;12.90;;;6.87;;
19251;SDS011;9760;50.944;5.304;2023-04-27T00:48:07;15.77;;;7.23;;
19251;SDS011;9760;50.944;5.304;2023-04-27T00:50:34;15.03;;;7.83;;
19251;SDS011;9760;50.944;5.304;2023-04-27T00:53:02;15.30;;;7.93;;
19251;SDS011;9760;50.944;5.304;2023-04-27T00:55:29;17.73;;;7.90;;
19251;SDS011;9760;50.944;5.304;2023-04-27T00:57:55;18.17;;;7.27;;
19251;SDS011;9760;50.944;5.304;2023-04-27T01:00:21;19.93;;;7.73;;
19251;SDS011;9760;50.944;5.304;2023-04-27T01:02:46;15.30;;;7.57;;
19251;SDS011;9760;50.944;5.304;2023-04-27T01:05:13;19.37;;;6.97;;
19251;SDS011;9760;50.944;5.304;2023-04-27T01:07:39;13.07;;;7.30;;
19251;SDS011;9760;50.944;5.304;2023-04-27T01:10:06;15.43;;;8.00;;
19251;SDS011;9760;50.944;5.304;2023-04-27T01:12:32;18.50;;;8.27;;
19251;SDS011;9760;50.944;5.304;2023-04-27T01:14:58;19.57;;;7.67;;
19251;SDS011;9760;50.944;5.304;2023-04-27T01:17:24;16.10;;;8.13;;
19251;SDS011;9760;50.944;5.304;2023-04-27T01:19:50;17.27;;;7.73;;
19251;SDS011;9760;50.944;5.304;2023-04-27T01:22:19;17.20;;;8.03;;
19251;SDS011;9760;50.944;5.304;2023-04-27T01:24:45;17.67;;;8.17;;
19251;SDS011;9760;50.944;5.304;2023-04-27T01:27:11;17.10;;;8.00;;
19251;SDS011;9760;50.944;5.304;2023-04-27T01:29:37;18.63;;;8.27;;
19251;SDS011;9760;50.944;5.304;2023-04-27T01:32:03;22.43;;;8.03;;
19251;SDS011;9760;50.944;5.304;2023-04-27T01:34:29;18.70;;;8.37;;
19251;SDS011;9760;50.944;5.304;2023-04-27T01:36:55;19.57;;;8.17;;
19251;SDS011;9760;50.944;5.304;2023-04-27T01:39:21;18.40;;;8.00;;
19251;SDS011;9760;50.944;5.304;2023-04-27T01:41:47;13.57;;;7.43;;
19251;SDS011;9760;50.944;5.304;2023-04-27T01:44:12;15.97;;;8.03;;
19251;SDS011;9760;50.944;5.304;2023-04-27T01:46:38;17.43;;;7.57;;
19251;SDS011;9760;50.944;5.304;2023-04-27T01:49:05;19.57;;;8.50;;
19251;SDS011;9760;50.944;5.304;2023-04-27T01:51:30;14.23;;;7.67;;
19251;SDS011;9760;50.944;5.304;2023-04-27T01:53:57;21.43;;;8.10;;
19251;SDS011;9760;50.944;5.304;2023-04-27T01:56:22;19.77;;;7.93;;
19251;SDS011;9760;50.944;5.304;2023-04-27T01:58:48;17.80;;;7.83;;
19251;SDS011;9760;50.944;5.304;2023-04-27T02:01:14;18.10;;;8.90;;
19251;SDS011;9760;50.944;5.304;2023-04-27T02:03:39;14.63;;;7.60;;
19251;SDS011;9760;50.944;5.304;2023-04-27T02:06:05;17.20;;;8.43;;
19251;SDS011;9760;50.944;5.304;2023-04-27T02:08:32;20.77;;;7.80;;
19251;SDS011;9760;50.944;5.304;2023-04-27T02:10:58;17.10;;;7.47;;
19251;SDS011;9760;50.944;5.304;2023-04-27T02:13:24;16.73;;;8.57;;
19251;SDS011;9760;50.944;5.304;2023-04-27T02:15:50;19.00;;;8.63;;
19251;SDS011;9760;50.944;5.304;2023-04-27T02:18:15;23.50;;;8.63;;
19251;SDS011;9760;50.944;5.304;2023-04-27T02:20:42;20.17;;;8.37;;
19251;SDS011;9760;50.944;5.304;2023-04-27T02:23:08;20.97;;;8.17;;
19251;SDS011;9760;50.944;5.304;2023-04-27T02:25:36;18.57;;;8.30;;
19251;SDS011;9760;50.944;5.304;2023-04-27T02:28:03;19.67;;;7.40;;
19251;SDS011;9760;50.944;5.304;2023-04-27T02:30:29;15.10;;;7.87;;
19251;SDS011;9760;50.944;5.304;2023-04-27T02:32:56;17.77;;;7.83;;
19251;SDS011;9760;50.944;5.304;2023-04-27T02:35:23;17.00;;;7.50;;
19251;SDS011;9760;50.944;5.304;2023-04-27T02:37:49;21.47;;;8.87;;
19251;SDS011;9760;50.944;5.304;2023-04-27T02:40:14;18.23;;;7.87;;
19251;SDS011;9760;50.944;5.304;2023-04-27T02:42:40;18.27;;;7.57;;
19251;SDS011;9760;50.944;5.304;2023-04-27T02:45:06;19.97;;;8.13;;
19251;SDS011;9760;50.944;5.304;2023-04-27T02:47:32;15.07;;;7.27;;
19251;SDS011;9760;50.944;5.304;2023-04-27T02:49:58;18.87;;;8.57;;
19251;SDS011;9760;50.944;5.304;2023-04-27T02:52:24;17.80;;;8.23;;
19251;SDS011;9760;50.944;5.304;2023-04-27T02:54:50;17.60;;;7.73;;
19251;SDS011;9760;50.944;5.304;2023-04-27T02:57:16;19.87;;;8.47;;
19251;SDS011;9760;50.944;5.304;2023-04-27T02:59:41;21.67;;;8.10;;
19251;SDS011;9760;50.944;5.304;2023-04-27T03:02:07;16.27;;;7.23;;
19251;SDS011;9760;50.944;5.304;2023-04-27T03:04:33;17.73;;;8.50;;
19251;SDS011;9760;50.944;5.304;2023-04-27T03:07:00;18.13;;;8.30;;
19251;SDS011;9760;50.944;5.304;2023-04-27T03:09:26;16.33;;;7.83;;
19251;SDS011;9760;50.944;5.304;2023-04-27T03:11:52;21.20;;;7.63;;
19251;SDS011;9760;50.944;5.304;2023-04-27T03:14:18;20.70;;;7.73;;
19251;SDS011;9760;50.944;5.304;2023-04-27T03:16:43;17.37;;;7.67;;
19251;SDS011;9760;50.944;5.304;2023-04-27T03:19:09;25.60;;;8.33;;
19251;SDS011;9760;50.944;5.304;2023-04-27T03:21:35;18.93;;;8.73;;
19251;SDS011;9760;50.944;5.304;2023-04-27T03:24:01;17.73;;;8.43;;
19251;SDS011;9760;50.944;5.304;2023-04-27T03:26:26;20.43;;;9.50;;
19251;SDS011;9760;50.944;5.304;2023-04-27T03:28:52;22.50;;;8.20;;
19251;SDS011;9760;50.944;5.304;2023-04-27T03:31:18;28.87;;;8.77;;
19251;SDS011;9760;50.944;5.304;2023-04-27T03:33:43;20.80;;;8.67;;
19251;SDS011;9760;50.944;5.304;2023-04-27T03:36:09;18.17;;;8.63;;
19251;SDS011;9760;50.944;5.304;2023-04-27T03:38:35;18.03;;;8.50;;
19251;SDS011;9760;50.944;5.304;2023-04-27T03:41:01;18.30;;;7.80;;
19251;SDS011;9760;50.944;5.304;2023-04-27T03:43:26;19.83;;;8.80;;
19251;SDS011;9760;50.944;5.304;2023-04-27T03:45:52;17.97;;;8.20;;
19251;SDS011;9760;50.944;5.304;2023-04-27T03:48:18;24.30;;;8.27;;
19251;SDS011;9760;50.944;5.304;2023-04-27T03:50:44;20.43;;;8.57;;
19251;SDS011;9760;50.944;5.304;2023-04-27T03:53:11;24.03;;;9.20;;
19251;SDS011;9760;50.944;5.304;2023-04-27T03:55:37;23.17;;;9.67;;
19251;SDS011;9760;50.944;5.304;2023-04-27T03:58:04;25.97;;;9.17;;
19251;SDS011;9760;50.944;5.304;2023-04-27T04:00:30;25.97;;;9.60;;
19251;SDS011;9760;50.944;5.304;2023-04-27T04:02:56;24.10;;;9.60;;
19251;SDS011;9760;50.944;5.304;2023-04-27T04:05:21;28.43;;;9.43;;
19251;SDS011;9760;50.944;5.304;2023-04-27T04:07:47;27.53;;;10.03;;
19251;SDS011;9760;50.944;5.304;2023-04-27T04:10:13;28.63;;;9.10;;
19251;SDS011;9760;50.944;5.304;2023-04-27T04:12:39;22.03;;;8.53;;
19251;SDS011;9760;50.944;5.304;2023-04-27T04:15:04;22.40;;;8.77;;
19251;SDS011;9760;50.944;5.304;2023-04-27T04:17:31;21.73;;;8.53;;
19251;SDS011;9760;50.944;5.304;2023-04-27T04:19:58;25.57;;;8.83;;
19251;SDS011;9760;50.944;5.304;2023-04-27T04:22:24;21.03;;;9.20;;
19251;SDS011;9760;50.944;5.304;2023-04-27T04:24:50;19.57;;;9.17;;
19251;SDS011;9760;50.944;5.304;2023-04-27T04:27:16;25.77;;;9.07;;
19251;SDS011;9760;50.944;5.304;2023-04-27T04:29:42;19.93;;;8.87;;
19251;SDS011;9760;50.944;5.304;2023-04-27T04:32:07;25.97;;;8.47;;
19251;SDS011;9760;50.944;5.304;2023-04-27T04:34:33;22.90;;;8.93;;
19251;SDS011;9760;50.944;5.304;2023-04-27T04:37:00;22.80;;;9.20;;
19251;SDS011;9760;50.944;5.304;2023-04-27T04:39:29;18.60;;;8.47;;
19251;SDS011;9760;50.944;5.304;2023-04-27T04:41:56;38.63;;;11.30;;
19251;SDS011;9760;50.944;5.304;2023-04-27T04:44:21;26.90;;;9.57;;
19251;SDS011;9760;50.944;5.304;2023-04-27T04:46:47;28.37;;;10.10;;
19251;SDS011;9760;50.944;5.304;2023-04-27T04:49:13;25.23;;;9.40;;
19251;SDS011;9760;50.944;5.304;2023-04-27T04:51:42;22.80;;;9.60;;
19251;SDS011;9760;50.944;5.304;2023-04-27T04:54:08;28.97;;;10.27;;
19251;SDS011;9760;50.944;5.304;2023-04-27T04:56:35;24.07;;;9.57;;
19251;SDS011;9760;50.944;5.304;2023-04-27T04:59:01;26.77;;;9.77;;
19251;SDS011;9760;50.944;5.304;2023-04-27T05:01:27;25.13;;;9.53;;
19251;SDS011;9760;50.944;5.304;2023-04-27T05:03:53;21.60;;;9.00;;
19251;SDS011;9760;50.944;5.304;2023-04-27T05:06:19;25.27;;;9.03;;
19251;SDS011;9760;50.944;5.304;2023-04-27T05:08:44;21.70;;;9.73;;
19251;SDS011;9760;50.944;5.304;2023-04-27T05:11:10;24.77;;;9.00;;
19251;SDS011;9760;50.944;5.304;2023-04-27T05:13:36;29.20;;;8.60;;
19251;SDS011;9760;50.944;5.304;2023-04-27T05:16:04;31.00;;;9.57;;
19251;SDS011;9760;50.944;5.304;2023-04-27T05:18:31;25.30;;;9.23;;
19251;SDS011;9760;50.944;5.304;2023-04-27T05:20:57;24.90;;;9.50;;
19251;SDS011;9760;50.944;5.304;2023-04-27T05:23:23;27.90;;;9.70;;
19251;SDS011;9760;50.944;5.304;2023-04-27T05:25:49;28.67;;;9.63;;
19251;SDS011;9760;50.944;5.304;2023-04-27T05:28:15;28.10;;;9.17;;
19251;SDS011;9760;50.944;5.304;2023-04-27T05:30:41;18.63;;;8.87;;
19251;SDS011;9760;50.944;5.304;2023-04-27T05:33:07;27.57;;;9.23;;
19251;SDS011;9760;50.944;5.304;2023-04-27T05:35:32;22.27;;;8.67;;
19251;SDS011;9760;50.944;5.304;2023-04-27T05:37:58;18.60;;;8.40;;
19251;SDS011;9760;50.944;5.304;2023-04-27T05:40:24;24.43;;;9.70;;
19251;SDS011;9760;50.944;5.304;2023-04-27T05:42:50;19.60;;;9.43;;
19251;SDS011;9760;50.944;5.304;2023-04-27T05:45:16;25.63;;;9.13;;
19251;SDS011;9760;50.944;5.304;2023-04-27T05:47:42;25.40;;;8.67;;
19251;SDS011;9760;50.944;5.304;2023-04-27T05:50:07;25.03;;;8.67;;
19251;SDS011;9760;50.944;5.304;2023-04-27T05:52:33;19.13;;;8.20;;
19251;SDS011;9760;50.944;5.304;2023-04-27T05:55:00;23.33;;;9.47;;
19251;SDS011;9760;50.944;5.304;2023-04-27T05:57:25;24.47;;;8.30;;
19251;SDS011;9760;50.944;5.304;2023-04-27T05:59:52;21.33;;;8.47;;
19251;SDS011;9760;50.944;5.304;2023-04-27T06:02:18;17.97;;;8.27;;
19251;SDS011;9760;50.944;5.304;2023-04-27T06:04:44;17.97;;;7.47;;
19251;SDS011;9760;50.944;5.304;2023-04-27T06:07:11;29.20;;;8.30;;
19251;SDS011;9760;50.944;5.304;2023-04-27T06:09:38;22.40;;;8.63;;
19251;SDS011;9760;50.944;5.304;2023-04-27T06:12:05;18.10;;;7.93;;
19251;SDS011;9760;50.944;5.304;2023-04-27T06:14:33;18.73;;;8.07;;
19251;SDS011;9760;50.944;5.304;2023-04-27T06:16:59;18.33;;;8.10;;
19251;SDS011;9760;50.944;5.304;2023-04-27T06:19:26;17.70;;;7.57;;
19251;SDS011;9760;50.944;5.304;2023-04-27T06:21:54;21.13;;;7.73;;
19251;SDS011;9760;50.944;5.304;2023-04-27T06:24:21;18.20;;;7.40;;
19251;SDS011;9760;50.944;5.304;2023-04-27T06:26:48;18.47;;;8.40;;
19251;SDS011;9760;50.944;5.304;2023-04-27T06:29:14;18.57;;;8.07;;
19251;SDS011;9760;50.944;5.304;2023-04-27T06:31:39;22.80;;;7.83;;
19251;SDS011;9760;50.944;5.304;2023-04-27T06:34:05;20.57;;;7.93;;
19251;SDS011;9760;50.944;5.304;2023-04-27T06:36:31;17.23;;;7.93;;
19251;SDS011;9760;50.944;5.304;2023-04-27T06:38:56;15.37;;;7.90;;
19251;SDS011;9760;50.944;5.304;2023-04-27T06:41:23;16.17;;;7.77;;
19251;SDS011;9760;50.944;5.304;2023-04-27T06:43:50;24.47;;;7.67;;
19251;SDS011;9760;50.944;5.304;2023-04-27T06:46:16;19.83;;;8.23;;
19251;SDS011;9760;50.944;5.304;2023-04-27T06:48:42;22.43;;;8.23;;
19251;SDS011;9760;50.944;5.304;2023-04-27T06:51:07;16.37;;;8.63;;
19251;SDS011;9760;50.944;5.304;2023-04-27T06:53:33;26.30;;;8.30;;
19251;SDS011;9760;50.944;5.304;2023-04-27T06:55:59;21.50;;;8.17;;
19251;SDS011;9760;50.944;5.304;2023-04-27T06:58:25;21.60;;;8.13;;
19251;SDS011;9760;50.944;5.304;2023-04-27T07:00:51;19.07;;;8.20;;
19251;SDS011;9760;50.944;5.304;2023-04-27T07:03:17;25.30;;;8.80;;
19251;SDS011;9760;50.944;5.304;2023-04-27T07:05:44;17.03;;;8.10;;
19251;SDS011;9760;50.944;5.304;2023-04-27T07:08:10;17.77;;;8.00;;
19251;SDS011;9760;50.944;5.304;2023-04-27T07:10:36;20.03;;;8.57;;
19251;SDS011;9760;50.944;5.304;2023-04-27T07:13:02;16.77;;;8.37;;
19251;SDS011;9760;50.944;5.304;2023-04-27T07:15:29;21.37;;;8.73;;
19251;SDS011;9760;50.944;5.304;2023-04-27T07:17:55;19.53;;;7.90;;
19251;SDS011;9760;50.944;5.304;2023-04-27T07:20:21;16.60;;;7.90;;
19251;SDS011;9760;50.944;5.304;2023-04-27T07:22:47;25.30;;;9.27;;
19251;SDS011;9760;50.944;5.304;2023-04-27T07:25:12;30.23;;;10.37;;
19251;SDS011;9760;50.944;5.304;2023-04-27T07:27:38;19.83;;;8.70;;
19251;SDS011;9760;50.944;5.304;2023-04-27T07:30:05;23.33;;;9.00;;
19251;SDS011;9760;50.944;5.304;2023-04-27T07:32:37;20.63;;;9.57;;
19251;SDS011;9760;50.944;5.304;2023-04-27T07:35:07;24.87;;;9.50;;
19251;SDS011;9760;50.944;5.304;2023-04-27T07:37:37;20.80;;;9.60;;
19251;SDS011;9760;50.944;5.304;2023-04-27T07:40:04;21.83;;;9.37;;
19251;SDS011;9760;50.944;5.304;2023-04-27T07:42:38;21.83;;;9.47;;
19251;SDS011;9760;50.944;5.304;2023-04-27T07:45:06;25.00;;;9.03;;
19251;SDS011;9760;50.944;5.304;2023-04-27T07:47:37;22.93;;;9.17;;
19251;SDS011;9760;50.944;5.304;2023-04-27T07:50:03;23.97;;;9.20;;
19251;SDS011;9760;50.944;5.304;2023-04-27T07:52:31;23.27;;;8.80;;
19251;SDS011;9760;50.944;5.304;2023-04-27T07:54:57;17.13;;;8.13;;
19251;SDS011;9760;50.944;5.304;2023-04-27T07:57:22;21.17;;;9.17;;
19251;SDS011;9760;50.944;5.304;2023-04-27T07:59:48;16.40;;;8.43;;
19251;SDS011;9760;50.944;5.304;2023-04-27T08:02:14;19.77;;;8.70;;
19251;SDS011;9760;50.944;5.304;2023-04-27T08:04:39;17.73;;;8.40;;
19251;SDS011;9760;50.944;5.304;2023-04-27T08:07:05;20.67;;;9.47;;
19251;SDS011;9760;50.944;5.304;2023-04-27T08:09:31;21.30;;;9.33;;
19251;SDS011;9760;50.944;5.304;2023-04-27T08:11:56;21.20;;;9.70;;
19251;SDS011;9760;50.944;5.304;2023-04-27T08:14:22;21.20;;;8.30;;
19251;SDS011;9760;50.944;5.304;2023-04-27T08:16:48;19.27;;;8.80;;
19251;SDS011;9760;50.944;5.304;2023-04-27T08:19:15;24.73;;;9.13;;
19251;SDS011;9760;50.944;5.304;2023-04-27T08:21:42;24.07;;;8.77;;
19251;SDS011;9760;50.944;5.304;2023-04-27T08:24:08;19.97;;;9.77;;
19251;SDS011;9760;50.944;5.304;2023-04-27T08:26:34;21.03;;;9.10;;
19251;SDS011;9760;50.944;5.304;2023-04-27T08:29:01;20.53;;;9.17;;
19251;SDS011;9760;50.944;5.304;2023-04-27T08:31:26;20.30;;;8.87;;
19251;SDS011;9760;50.944;5.304;2023-04-27T08:33:53;16.83;;;7.70;;
19251;SDS011;9760;50.944;5.304;2023-04-27T08:36:22;18.17;;;8.23;;
19251;SDS011;9760;50.944;5.304;2023-04-27T08:38:48;16.53;;;8.67;;
19251;SDS011;9760;50.944;5.304;2023-04-27T08:41:18;19.70;;;8.00;;
19251;SDS011;9760;50.944;5.304;2023-04-27T08:43:45;14.33;;;7.40;;
19251;SDS011;9760;50.944;5.304;2023-04-27T08:46:16;17.17;;;7.87;;
19251;SDS011;9760;50.944;5.304;2023-04-27T08:48:48;16.50;;;7.90;;
19251;SDS011;9760;50.944;5.304;2023-04-27T08:51:15;16.83;;;8.20;;
19251;SDS011;9760;50.944;5.304;2023-04-27T08:56:16;20.27;;;7.27;;
19251;SDS011;9760;50.944;5.304;2023-04-27T08:58:43;21.10;;;7.70;;
19251;SDS011;9760;50.944;5.304;2023-04-27T09:01:09;13.97;;;7.17;;
19251;SDS011;9760;50.944;5.304;2023-04-27T09:03:35;18.27;;;8.03;;
19251;SDS011;9760;50.944;5.304;2023-04-27T09:06:02;15.20;;;7.40;;
19251;SDS011;9760;50.944;5.304;2023-04-27T09:08:28;16.13;;;7.43;;
19251;SDS011;9760;50.944;5.304;2023-04-27T09:11:04;18.37;;;6.83;;
19251;SDS011;9760;50.944;5.304;2023-04-27T09:13:33;13.57;;;6.73;;
19251;SDS011;9760;50.944;5.304;2023-04-27T09:16:00;15.93;;;7.63;;
19251;SDS011;9760;50.944;5.304;2023-04-27T09:18:26;21.33;;;7.70;;
19251;SDS011;9760;50.944;5.304;2023-04-27T09:20:52;15.40;;;7.60;;
19251;SDS011;9760;50.944;5.304;2023-04-27T09:23:24;12.67;;;6.70;;
19251;SDS011;9760;50.944;5.304;2023-04-27T09:25:54;14.73;;;6.80;;
19251;SDS011;9760;50.944;5.304;2023-04-27T09:28:24;16.07;;;6.90;;
19251;SDS011;9760;50.944;5.304;2023-04-27T09:30:54;18.73;;;7.07;;
19251;SDS011;9760;50.944;5.304;2023-04-27T09:33:25;16.20;;;6.40;;
19251;SDS011;9760;50.944;5.304;2023-04-27T09:35:52;25.10;;;6.77;;
19251;SDS011;9760;50.944;5.304;2023-04-27T09:38:19;12.63;;;6.63;;
19251;SDS011;9760;50.944;5.304;2023-04-27T09:40:46;11.83;;;6.40;;
19251;SDS011;9760;50.944;5.304;2023-04-27T09:43:13;18.87;;;6.97;;
19251;SDS011;9760;50.944;5.304;2023-04-27T09:45:39;17.53;;;6.57;;
19251;SDS011;9760;50.944;5.304;2023-04-27T09:48:06;16.90;;;7.00;;
19251;SDS011;9760;50.944;5.304;2023-04-27T09:50:36;14.90;;;7.60;;
19251;SDS011;9760;50.944;5.304;2023-04-27T09:53:04;15.60;;;7.37;;
19251;SDS011;9760;50.944;5.304;2023-04-27T10:04:00;15.23;;;7.70;;
19251;SDS011;9760;50.944;5.304;2023-04-27T10:06:40;14.50;;;7.33;;
19251;SDS011;9760;50.944;5.304;2023-04-27T10:09:08;12.40;;;6.57;;
19251;SDS011;9760;50.944;5.304;2023-04-27T10:11:37;16.97;;;7.00;;
19251;SDS011;9760;50.944;5.304;2023-04-27T10:14:08;19.03;;;7.30;;
19251;SDS011;9760;50.944;5.304;2023-04-27T10:16:44;14.47;;;7.40;;
19251;SDS011;9760;50.944;5.304;2023-04-27T10:19:11;16.97;;;7.37;;
19251;SDS011;9760;50.944;5.304;2023-04-27T10:21:49;15.57;;;6.90;;
19251;SDS011;9760;50.944;5.304;2023-04-27T10:24:30;14.63;;;6.87;;
19251;SDS011;9760;50.944;5.304;2023-04-27T10:27:01;15.80;;;6.63;;
19251;SDS011;9760;50.944;5.304;2023-04-27T10:29:42;16.97;;;7.57;;
19251;SDS011;9760;50.944;5.304;2023-04-27T10:32:18;16.63;;;8.10;;
19251;SDS011;9760;50.944;5.304;2023-04-27T10:34:44;19.67;;;7.00;;
19251;SDS011;9760;50.944;5.304;2023-04-27T10:37:13;18.90;;;7.00;;
19251;SDS011;9760;50.944;5.304;2023-04-27T10:39:39;18.37;;;7.10;;
19251;SDS011;9760;50.944;5.304;2023-04-27T10:42:06;17.70;;;7.37;;
19251;SDS011;9760;50.944;5.304;2023-04-27T10:44:34;15.17;;;6.33;;
19251;SDS011;9760;50.944;5.304;2023-04-27T10:47:01;13.07;;;6.43;;
19251;SDS011;9760;50.944;5.304;2023-04-27T10:49:37;16.43;;;7.57;;
19251;SDS011;9760;50.944;5.304;2023-04-27T10:52:03;19.37;;;7.97;;
19251;SDS011;9760;50.944;5.304;2023-04-27T10:54:30;16.53;;;7.67;;
19251;SDS011;9760;50.944;5.304;2023-04-27T10:59:31;13.40;;;6.50;;
19251;SDS011;9760;50.944;5.304;2023-04-27T11:01:58;13.47;;;6.87;;
19251;SDS011;9760;50.944;5.304;2023-04-27T11:04:33;15.57;;;7.20;;
19251;SDS011;9760;50.944;5.304;2023-04-27T11:07:00;14.30;;;7.30;;
19251;SDS011;9760;50.944;5.304;2023-04-27T11:09:28;16.50;;;6.93;;
19251;SDS011;9760;50.944;5.304;2023-04-27T11:11:55;15.07;;;6.83;;
19251;SDS011;9760;50.944;5.304;2023-04-27T11:14:20;14.57;;;6.57;;
19251;SDS011;9760;50.944;5.304;2023-04-27T11:16:47;14.87;;;6.23;;
19251;SDS011;9760;50.944;5.304;2023-04-27T11:19:13;13.67;;;6.20;;
19251;SDS011;9760;50.944;5.304;2023-04-27T11:21:39;11.43;;;6.23;;
19251;SDS011;9760;50.944;5.304;2023-04-27T11:24:06;11.17;;;5.60;;
19251;SDS011;9760;50.944;5.304;2023-04-27T11:26:32;12.93;;;5.77;;
19251;SDS011;9760;50.944;5.304;2023-04-27T11:29:02;13.87;;;6.07;;
19251;SDS011;9760;50.944;5.304;2023-04-27T11:31:48;17.20;;;6.37;;
19251;SDS011;9760;50.944;5.304;2023-04-27T11:34:19;10.53;;;6.30;;
19251;SDS011;9760;50.944;5.304;2023-04-27T11:36:55;15.83;;;6.20;;
19251;SDS011;9760;50.944;5.304;2023-04-27T11:39:32;14.67;;;6.70;;
19251;SDS011;9760;50.944;5.304;2023-04-27T11:44:57;16.97;;;7.70;;
19251;SDS011;9760;50.944;5.304;2023-04-27T11:47:24;18.33;;;6.47;;
19251;SDS011;9760;50.944;5.304;2023-04-27T11:49:53;20.00;;;7.90;;
19251;SDS011;9760;50.944;5.304;2023-04-27T11:52:33;14.00;;;7.47;;
19251;SDS011;9760;50.944;5.304;2023-04-27T11:55:00;15.13;;;7.00;;
19251;SDS011;9760;50.944;5.304;2023-04-27T11:57:28;18.80;;;6.23;;
19251;SDS011;9760;50.944;5.304;2023-04-27T11:59:56;16.97;;;7.20;;
19251;SDS011;9760;50.944;5.304;2023-04-27T12:02:24;14.17;;;6.10;;
19251;SDS011;9760;50.944;5.304;2023-04-27T12:04:51;13.67;;;6.27;;
19251;SDS011;9760;50.944;5.304;2023-04-27T12:07:17;20.57;;;7.37;;
19251;SDS011;9760;50.944;5.304;2023-04-27T12:09:43;15.97;;;7.57;;
19251;SDS011;9760;50.944;5.304;2023-04-27T12:12:09;17.57;;;6.50;;
19251;SDS011;9760;50.944;5.304;2023-04-27T12:14:37;17.07;;;6.90;;
19251;SDS011;9760;50.944;5.304;2023-04-27T12:17:02;14.97;;;7.20;;
19251;SDS011;9760;50.944;5.304;2023-04-27T12:19:28;13.60;;;7.00;;
19251;SDS011;9760;50.944;5.304;2023-04-27T12:21:54;15.50;;;6.30;;
19251;SDS011;9760;50.944;5.304;2023-04-27T12:24:21;18.20;;;7.57;;
19251;SDS011;9760;50.944;5.304;2023-04-27T12:26:47;18.10;;;7.73;;
19251;SDS011;9760;50.944;5.304;2023-04-27T12:29:13;16.63;;;7.67;;
19251;SDS011;9760;50.944;5.304;2023-04-27T12:31:39;17.60;;;7.77;;
19251;SDS011;9760;50.944;5.304;2023-04-27T12:34:04;18.27;;;7.90;;
19251;SDS011;9760;50.944;5.304;2023-04-27T12:36:30;17.23;;;7.60;;
19251;SDS011;9760;50.944;5.304;2023-04-27T12:38:57;21.23;;;7.67;;
19251;SDS011;9760;50.944;5.304;2023-04-27T12:41:24;17.90;;;7.17;;
19251;SDS011;9760;50.944;5.304;2023-04-27T12:43:50;18.50;;;7.80;;
19251;SDS011;9760;50.944;5.304;2023-04-27T12:46:16;20.63;;;8.37;;
19251;SDS011;9760;50.944;5.304;2023-04-27T12:48:42;17.23;;;8.07;;
19251;SDS011;9760;50.944;5.304;2023-04-27T12:51:08;15.60;;;8.50;;
19251;SDS011;9760;50.944;5.304;2023-04-27T12:53:35;13.97;;;7.33;;
19251;SDS011;9760;50.944;5.304;2023-04-27T12:56:01;17.23;;;8.33;;
19251;SDS011;9760;50.944;5.304;2023-04-27T12:58:28;19.60;;;8.50;;
19251;SDS011;9760;50.944;5.304;2023-04-27T13:00:55;18.03;;;8.17;;
19251;SDS011;9760;50.944;5.304;2023-04-27T13:03:23;15.43;;;6.90;;
19251;SDS011;9760;50.944;5.304;2023-04-27T13:05:49;17.17;;;8.03;;
19251;SDS011;9760;50.944;5.304;2023-04-27T13:08:15;20.57;;;8.13;;
19251;SDS011;9760;50.944;5.304;2023-04-27T13:10:41;21.27;;;9.60;;
19251;SDS011;9760;50.944;5.304;2023-04-27T13:13:07;17.13;;;7.97;;
19251;SDS011;9760;50.944;5.304;2023-04-27T13:15:33;16.53;;;7.10;;
19251;SDS011;9760;50.944;5.304;2023-04-27T13:17:58;18.00;;;8.67;;
19251;SDS011;9760;50.944;5.304;2023-04-27T13:20:25;24.10;;;8.73;;
19251;SDS011;9760;50.944;5.304;2023-04-27T13:22:51;21.27;;;8.57;;
19251;SDS011;9760;50.944;5.304;2023-04-27T13:25:17;21.00;;;8.37;;
19251;SDS011;9760;50.944;5.304;2023-04-27T13:27:44;15.60;;;7.67;;
19251;SDS011;9760;50.944;5.304;2023-04-27T13:30:10;25.43;;;9.30;;
19251;SDS011;9760;50.944;5.304;2023-04-27T13:32:35;20.90;;;9.13;;
19251;SDS011;9760;50.944;5.304;2023-04-27T13:35:01;18.27;;;8.27;;
19251;SDS011;9760;50.944;5.304;2023-04-27T13:37:27;23.20;;;8.33;;
19251;SDS011;9760;50.944;5.304;2023-04-27T13:39:53;20.90;;;8.53;;
19251;SDS011;9760;50.944;5.304;2023-04-27T13:42:19;20.10;;;9.17;;
19251;SDS011;9760;50.944;5.304;2023-04-27T13:44:45;16.73;;;8.50;;
19251;SDS011;9760;50.944;5.304;2023-04-27T13:47:11;20.30;;;8.30;;
19251;SDS011;9760;50.944;5.304;2023-04-27T13:49:36;23.47;;;8.30;;
19251;SDS011;9760;50.944;5.304;2023-04-27T13:52:02;17.20;;;8.67;;
19251;SDS011;9760;50.944;5.304;2023-04-27T13:54:28;19.17;;;8.37;;
19251;SDS011;9760;50.944;5.304;2023-04-27T13:56:53;14.60;;;8.00;;
19251;SDS011;9760;50.944;5.304;2023-04-27T13:59:19;24.73;;;8.70;;
19251;SDS011;9760;50.944;5.304;2023-04-27T14:01:45;20.97;;;7.90;;
19251;SDS011;9760;50.944;5.304;2023-04-27T14:04:11;20.93;;;8.33;;
19251;SDS011;9760;50.944;5.304;2023-04-27T14:06:37;21.53;;;8.20;;
19251;SDS011;9760;50.944;5.304;2023-04-27T14:09:02;14.13;;;7.53;;
19251;SDS011;9760;50.944;5.304;2023-04-27T14:11:28;20.73;;;7.67;;
19251;SDS011;9760;50.944;5.304;2023-04-27T14:13:54;15.83;;;7.93;;
19251;SDS011;9760;50.944;5.304;2023-04-27T14:16:20;19.37;;;8.37;;
19251;SDS011;9760;50.944;5.304;2023-04-27T14:18:48;22.43;;;8.20;;
19251;SDS011;9760;50.944;5.304;2023-04-27T14:21:14;21.93;;;9.17;;
19251;SDS011;9760;50.944;5.304;2023-04-27T14:23:39;17.60;;;8.23;;
19251;SDS011;9760;50.944;5.304;2023-04-27T14:26:05;16.13;;;8.07;;
19251;SDS011;9760;50.944;5.304;2023-04-27T14:28:31;20.57;;;8.63;;
19251;SDS011;9760;50.944;5.304;2023-04-27T14:30:56;18.43;;;8.83;;
19251;SDS011;9760;50.944;5.304;2023-04-27T14:33:22;15.60;;;8.40;;
19251;SDS011;9760;50.944;5.304;2023-04-27T14:35:48;23.33;;;8.87;;
19251;SDS011;9760;50.944;5.304;2023-04-27T14:38:13;18.73;;;9.10;;
19251;SDS011;9760;50.944;5.304;2023-04-27T14:40:39;24.43;;;9.40;;
19251;SDS011;9760;50.944;5.304;2023-04-27T14:43:05;21.50;;;9.97;;
19251;SDS011;9760;50.944;5.304;2023-04-27T14:45:30;27.90;;;9.33;;
19251;SDS011;9760;50.944;5.304;2023-04-27T14:47:56;29.33;;;9.43;;
19251;SDS011;9760;50.944;5.304;2023-04-27T14:50:22;18.60;;;9.10;;
19251;SDS011;9760;50.944;5.304;2023-04-27T14:52:48;23.30;;;9.03;;
19251;SDS011;9760;50.944;5.304;2023-04-27T14:55:13;21.47;;;9.73;;
19251;SDS011;9760;50.944;5.304;2023-04-27T14:57:41;22.77;;;9.87;;
19251;SDS011;9760;50.944;5.304;2023-04-27T15:00:07;19.70;;;10.23;;
19251;SDS011;9760;50.944;5.304;2023-04-27T15:02:35;19.43;;;10.20;;